Metar z pełnej godziny Komunikat METAR ze strony awiacja.imgw.pl Metar G00 EPKT METAR EPKT 200200Z VRB02KT 8000 NSC 16/15 Q1017 =